Time;durP1;ratioP1;P1;durP2;ratioP2;P2;SDS_P1;SDS_P2;PMS_P1;PMS_P2;Temp;Humidity;BMP_temperature;BMP_pressure;BME280_temperature;BME280_humidity;BME280_pressure;Samples;Min_cycle;Max_cycle;Signal;HPM_P1;HPM_P2
2023/09/11 00:01:08;;;;;;;18.03;10.03;;;19.80;99.90;;;;;;5193091;28;20222;-47
2023/09/11 00:03:38;;;;;;;14.07;11.60;;;19.70;99.90;;;;;;5194742;28;20192;-46
2023/09/11 00:06:09;;;;;;;12.67;10.13;;;19.70;99.90;;;;;;5195130;28;20188;-47
2023/09/11 00:08:39;;;;;;;12.57;10.30;;;19.70;99.90;;;;;;5203992;28;20172;-49
2023/09/11 00:11:10;;;;;;;11.03;8.80;;;19.70;99.90;;;;;;5192667;28;20283;-47
2023/09/11 00:13:41;;;;;;;12.87;9.40;;;19.60;99.90;;;;;;5186730;28;20188;-48
2023/09/11 00:16:12;;;;;;;14.27;10.07;;;19.60;99.90;;;;;;5190538;28;20223;-49
2023/09/11 00:18:42;;;;;;;15.33;10.20;;;19.50;99.90;;;;;;5190324;28;20188;-48
2023/09/11 00:21:13;;;;;;;15.20;9.20;;;19.50;99.90;;;;;;5191651;28;20236;-49
2023/09/11 00:23:43;;;;;;;20.33;10.50;;;19.50;99.90;;;;;;5200000;28;20180;-48
2023/09/11 00:26:14;;;;;;;14.53;9.77;;;19.50;99.90;;;;;;5195045;28;20271;-50
2023/09/11 00:28:45;;;;;;;18.70;9.00;;;19.50;99.90;;;;;;5193721;28;20326;-48
2023/09/11 00:31:16;;;;;;;13.07;8.97;;;19.50;99.90;;;;;;5194743;28;20203;-49
2023/09/11 00:33:46;;;;;;;12.93;11.00;;;19.40;99.90;;;;;;5192905;28;20251;-49
2023/09/11 00:36:17;;;;;;;13.87;10.50;;;19.40;99.90;;;;;;5199422;28;20204;-49
2023/09/11 00:38:50;;;;;;;17.60;10.70;;;19.30;99.90;;;;;;5200730;28;20210;-49
2023/09/11 00:41:20;;;;;;;19.27;10.20;;;19.30;99.90;;;;;;5199783;28;20212;-48
2023/09/11 00:43:51;;;;;;;14.83;9.70;;;19.30;99.90;;;;;;5202504;28;20977;-48
2023/09/11 00:46:22;;;;;;;19.40;10.77;;;19.30;99.90;;;;;;5201964;28;20659;-49
2023/09/11 00:48:55;;;;;;;16.43;10.70;;;19.20;99.90;;;;;;5201424;28;20180;-48
2023/09/11 00:51:26;;;;;;;17.53;10.33;;;19.20;99.90;;;;;;5202482;28;20207;-48
2023/09/11 00:53:57;;;;;;;11.63;9.70;;;19.20;99.90;;;;;;5193342;28;20418;-48
2023/09/11 00:56:27;;;;;;;11.10;10.00;;;19.10;99.90;;;;;;5202733;28;20458;-48
2023/09/11 00:58:58;;;;;;;13.27;10.43;;;19.10;99.90;;;;;;5195847;28;20185;-48
2023/09/11 01:01:29;;;;;;;10.10;8.77;;;19.10;99.90;;;;;;5216653;28;20541;-49
2023/09/11 01:04:00;;;;;;;12.83;10.33;;;19.10;99.90;;;;;;5198354;28;20176;-49
2023/09/11 01:06:31;;;;;;;11.90;10.10;;;19.10;99.90;;;;;;5200531;28;20179;-47
2023/09/11 01:09:03;;;;;;;13.90;9.77;;;19.00;99.90;;;;;;5203182;28;20706;-47
2023/09/11 01:11:33;;;;;;;13.20;10.13;;;19.00;99.90;;;;;;5197459;28;20367;-48
2023/09/11 01:14:04;;;;;;;13.53;10.37;;;19.00;99.90;;;;;;5194147;28;20810;-47
2023/09/11 01:17:10;;;;;;;17.90;9.27;;;19.00;99.90;;;;;;5180962;28;20193;-47
2023/09/11 01:19:53;;;;;;;12.50;10.47;;;19.00;99.90;;;;;;5183477;28;20196;-48
2023/09/11 01:22:34;;;;;;;13.60;11.10;;;18.90;99.90;;;;;;5192743;28;20458;-49
2023/09/11 01:25:20;;;;;;;14.70;10.73;;;18.90;99.90;;;;;;5199210;28;20443;-48
2023/09/11 01:28:14;;;;;;;13.80;10.23;;;18.90;99.90;;;;;;5202446;28;20517;-48
2023/09/11 01:30:46;;;;;;;15.47;10.37;;;18.90;99.90;;;;;;5197248;28;21020;-48
2023/09/11 01:33:16;;;;;;;11.63;9.63;;;18.80;99.90;;;;;;5208342;28;20427;-48
2023/09/11 01:35:47;;;;;;;11.37;10.00;;;18.80;99.90;;;;;;5196414;28;20865;-48
2023/09/11 01:38:19;;;;;;;11.87;10.50;;;18.70;99.90;;;;;;5197272;28;20176;-47
2023/09/11 01:40:54;;;;;;;11.07;9.97;;;18.70;99.90;;;;;;5199714;28;20213;-49
2023/09/11 01:43:29;;;;;;;10.50;9.40;;;18.70;99.90;;;;;;5198380;28;20467;-49
2023/09/11 01:46:02;;;;;;;13.10;9.60;;;18.70;99.90;;;;;;5192447;28;20427;-48
2023/09/11 01:48:35;;;;;;;13.10;9.43;;;18.70;99.90;;;;;;5192864;28;20477;-49
2023/09/11 01:51:07;;;;;;;12.27;10.57;;;18.70;99.90;;;;;;5193728;28;20530;-49
2023/09/11 01:53:39;;;;;;;10.73;8.17;;;18.60;99.90;;;;;;5195855;28;20449;-48
2023/09/11 01:56:10;;;;;;;17.43;10.90;;;18.60;99.90;;;;;;5195207;28;20481;-48
2023/09/11 01:58:43;;;;;;;14.17;10.70;;;18.60;99.90;;;;;;5199143;28;20825;-49
2023/09/11 02:01:14;;;;;;;12.53;10.30;;;18.60;99.90;;;;;;5194019;28;20459;-48
2023/09/11 02:03:45;;;;;;;11.60;9.83;;;18.60;99.90;;;;;;5194988;28;20954;-48
2023/09/11 02:06:15;;;;;;;12.17;10.90;;;18.60;99.90;;;;;;5195706;28;20187;-48
2023/09/11 02:08:46;;;;;;;11.90;10.50;;;18.60;99.90;;;;;;5199372;28;20248;-49
2023/09/11 02:11:17;;;;;;;15.10;10.50;;;18.50;99.90;;;;;;5192471;28;20200;-49
2023/09/11 02:13:47;;;;;;;12.33;9.90;;;18.50;99.90;;;;;;5197508;28;20203;-48
2023/09/11 02:16:18;;;;;;;16.17;11.40;;;18.50;99.90;;;;;;5196222;28;20288;-48
2023/09/11 02:18:49;;;;;;;14.17;11.37;;;18.50;99.90;;;;;;5194098;28;20180;-49
2023/09/11 02:21:20;;;;;;;15.73;11.20;;;18.40;99.90;;;;;;5191289;28;20347;-48
2023/09/11 02:23:51;;;;;;;12.10;10.87;;;18.40;99.90;;;;;;5193975;28;20195;-48
2023/09/11 02:26:22;;;;;;;11.93;10.67;;;18.40;99.90;;;;;;5191317;28;20441;-49
2023/09/11 02:28:53;;;;;;;13.10;10.20;;;18.40;99.90;;;;;;5199244;28;20186;-48
2023/09/11 02:31:23;;;;;;;10.50;9.50;;;18.30;99.90;;;;;;5194157;28;20199;-48
2023/09/11 02:33:54;;;;;;;12.87;10.73;;;18.30;99.90;;;;;;5192081;28;20212;-50
2023/09/11 02:36:25;;;;;;;14.90;11.13;;;18.30;99.90;;;;;;5195963;28;20246;-47
2023/09/11 02:38:55;;;;;;;13.83;10.70;;;18.30;99.90;;;;;;5199227;28;20191;-48
2023/09/11 02:41:26;;;;;;;14.17;11.13;;;18.30;99.90;;;;;;5200047;28;20682;-48
2023/09/11 02:43:57;;;;;;;11.67;10.53;;;18.30;99.90;;;;;;5191675;28;20187;-48
2023/09/11 02:46:27;;;;;;;12.17;11.00;;;18.20;99.90;;;;;;5191765;28;20188;-48
2023/09/11 02:48:58;;;;;;;18.17;11.13;;;18.20;99.90;;;;;;5203226;28;20270;-48
2023/09/11 02:51:30;;;;;;;13.03;10.50;;;18.20;99.90;;;;;;5199050;28;20285;-48
2023/09/11 02:54:01;;;;;;;13.97;11.63;;;18.20;99.90;;;;;;5192707;28;20188;-48
2023/09/11 02:56:34;;;;;;;12.33;11.03;;;18.20;99.90;;;;;;5189602;28;20465;-47
2023/09/11 02:59:05;;;;;;;13.53;11.17;;;18.20;99.90;;;;;;5191334;28;20180;-47
2023/09/11 03:01:36;;;;;;;12.67;10.80;;;18.10;99.90;;;;;;5190326;28;20508;-48
2023/09/11 03:04:06;;;;;;;14.10;10.90;;;18.10;99.90;;;;;;5200991;28;20465;-48
2023/09/11 03:06:37;;;;;;;15.23;11.43;;;18.10;99.90;;;;;;5194089;28;20655;-48
2023/09/11 03:09:08;;;;;;;16.27;11.47;;;18.10;99.90;;;;;;5197075;28;20216;-48
2023/09/11 03:11:39;;;;;;;19.70;11.53;;;18.00;99.90;;;;;;5192664;28;20214;-48
2023/09/11 03:14:13;;;;;;;16.37;11.53;;;18.00;99.90;;;;;;5204992;28;20220;-48
2023/09/11 03:16:43;;;;;;;15.23;12.43;;;18.00;99.90;;;;;;5194713;28;20262;-48
2023/09/11 03:19:14;;;;;;;15.50;12.77;;;18.00;99.90;;;;;;5201412;28;20445;-48
2023/09/11 03:21:45;;;;;;;15.37;12.37;;;18.00;99.90;;;;;;5192681;28;20822;-47
2023/09/11 03:24:16;;;;;;;12.30;11.00;;;18.00;99.90;;;;;;5201623;28;20184;-48
2023/09/11 03:26:47;;;;;;;15.33;12.40;;;18.00;99.90;;;;;;5199370;28;20191;-48
2023/09/11 03:29:18;;;;;;;18.37;12.30;;;17.90;99.90;;;;;;5197270;28;20188;-48
2023/09/11 03:31:48;;;;;;;13.53;12.03;;;17.90;99.90;;;;;;5194356;28;20463;-48
2023/09/11 03:34:19;;;;;;;20.17;14.23;;;17.90;99.90;;;;;;5194367;28;20187;-48
2023/09/11 03:36:50;;;;;;;15.73;13.30;;;17.80;99.90;;;;;;5195380;28;20210;-49
2023/09/11 03:39:21;;;;;;;16.47;13.13;;;17.80;99.90;;;;;;5191918;28;20192;-48
2023/09/11 03:41:51;;;;;;;19.63;13.30;;;17.80;99.90;;;;;;5200507;28;20295;-47
2023/09/11 03:44:22;;;;;;;21.00;13.80;;;17.70;99.90;;;;;;5200052;28;20278;-47
2023/09/11 03:46:53;;;;;;;14.90;12.80;;;17.70;99.90;;;;;;5199793;28;20175;-47
2023/09/11 03:49:24;;;;;;;17.60;13.87;;;17.80;99.90;;;;;;5196234;28;20200;-48
2023/09/11 03:51:54;;;;;;;16.73;13.60;;;17.80;99.90;;;;;;5189427;28;20669;-48
2023/09/11 03:54:25;;;;;;;17.67;14.37;;;17.70;99.90;;;;;;5192206;28;20200;-48
2023/09/11 03:56:56;;;;;;;20.57;15.00;;;17.70;99.90;;;;;;5201548;28;20252;-48
2023/09/11 03:59:29;;;;;;;21.93;15.70;;;17.70;99.90;;;;;;5201193;28;20442;-49
2023/09/11 04:02:00;;;;;;;26.00;15.77;;;17.70;99.90;;;;;;5194920;28;20196;-49
2023/09/11 04:04:31;;;;;;;28.17;15.63;;;17.70;99.90;;;;;;5200328;28;20446;-49
2023/09/11 04:07:02;;;;;;;24.43;16.97;;;17.70;99.90;;;;;;5194985;28;20239;-49
2023/09/11 04:09:33;;;;;;;22.90;16.13;;;17.70;99.90;;;;;;5202068;28;20188;-49
2023/09/11 04:12:04;;;;;;;25.93;15.83;;;17.70;99.90;;;;;;5191587;28;20889;-49
2023/09/11 04:14:37;;;;;;;23.60;15.90;;;17.70;99.90;;;;;;5198312;28;20192;-49
2023/09/11 04:17:10;;;;;;;46.17;19.27;;;17.70;99.90;;;;;;5195803;28;20516;-48
2023/09/11 04:19:41;;;;;;;23.60;17.73;;;17.70;99.90;;;;;;5198970;28;20529;-48
2023/09/11 04:22:12;;;;;;;22.67;16.10;;;17.70;99.90;;;;;;5197219;28;20544;-48
2023/09/11 04:24:42;;;;;;;21.77;16.73;;;17.60;99.90;;;;;;5200470;28;20184;-48
2023/09/11 04:27:13;;;;;;;27.90;17.17;;;17.60;99.90;;;;;;5198084;28;20274;-48
2023/09/11 04:29:44;;;;;;;21.00;14.63;;;17.60;99.90;;;;;;5200984;28;20183;-47
2023/09/11 04:32:17;;;;;;;26.43;17.60;;;17.60;99.90;;;;;;5197088;28;20199;-47
2023/09/11 04:34:51;;;;;;;21.10;14.57;;;17.60;99.90;;;;;;5201219;28;20612;-48
2023/09/11 04:37:22;;;;;;;15.53;13.83;;;17.60;99.90;;;;;;5199881;28;20470;-49
2023/09/11 04:39:53;;;;;;;18.10;14.37;;;17.60;99.90;;;;;;5194426;28;20431;-48
2023/09/11 04:42:24;;;;;;;18.67;14.10;;;17.60;99.90;;;;;;5193314;28;20208;-48
2023/09/11 04:44:58;;;;;;;22.00;14.20;;;17.70;99.90;;;;;;5192956;28;20181;-48
2023/09/11 04:47:34;;;;;;;17.23;13.30;;;17.70;99.90;;;;;;5201111;28;20467;-48
2023/09/11 04:50:05;;;;;;;22.00;15.47;;;17.70;99.90;;;;;;5196268;28;20588;-48
2023/09/11 04:52:36;;;;;;;22.70;14.60;;;17.70;99.90;;;;;;5205496;28;20454;-48
2023/09/11 04:55:07;;;;;;;25.70;15.50;;;17.80;99.90;;;;;;5195745;28;20527;-48
2023/09/11 04:57:39;;;;;;;22.13;15.47;;;17.80;99.90;;;;;;5194638;28;20259;-48
2023/09/11 05:00:11;;;;;;;23.30;14.03;;;17.80;99.90;;;;;;5194175;28;20450;-48
2023/09/11 05:02:44;;;;;;;16.83;13.27;;;17.90;99.90;;;;;;5194382;28;20426;-49
2023/09/11 05:05:15;;;;;;;22.43;14.80;;;18.00;99.90;;;;;;5194910;28;20441;-49
2023/09/11 05:07:46;;;;;;;18.70;14.00;;;18.10;99.90;;;;;;5200921;28;20438;-49
2023/09/11 05:10:16;;;;;;;19.63;13.00;;;18.10;99.90;;;;;;5183837;28;20243;-48
2023/09/11 05:12:47;;;;;;;26.07;13.97;;;18.20;99.90;;;;;;5208640;28;20189;-48
2023/09/11 05:15:18;;;;;;;17.47;13.30;;;18.30;99.90;;;;;;5187519;28;20203;-48
2023/09/11 05:17:49;;;;;;;23.53;13.80;;;18.40;99.90;;;;;;5194207;28;20215;-49
2023/09/11 05:20:20;;;;;;;19.47;13.97;;;18.50;99.90;;;;;;5199652;28;20449;-49
2023/09/11 05:22:51;;;;;;;27.53;15.27;;;18.60;99.90;;;;;;5192968;28;20951;-48
2023/09/11 05:25:22;;;;;;;20.40;14.80;;;18.70;99.90;;;;;;5195177;28;20682;-48
2023/09/11 05:27:53;;;;;;;17.00;13.90;;;18.80;99.90;;;;;;5189658;28;20538;-48
2023/09/11 05:30:23;;;;;;;19.47;14.17;;;18.90;99.90;;;;;;5193600;28;20490;-49
2023/09/11 05:32:54;;;;;;;26.03;14.40;;;18.90;99.90;;;;;;5193138;28;20184;-49
2023/09/11 05:35:25;;;;;;;22.60;13.53;;;19.10;99.90;;;;;;5191014;28;20271;-49
2023/09/11 05:37:55;;;;;;;22.30;14.90;;;19.20;99.90;;;;;;5199119;28;20462;-49
2023/09/11 05:40:26;;;;;;;19.47;13.97;;;19.30;99.90;;;;;;5202228;28;20652;-49
2023/09/11 05:42:57;;;;;;;26.73;13.73;;;19.40;99.90;;;;;;5191759;28;20250;-50
2023/09/11 05:45:29;;;;;;;27.60;15.90;;;19.60;99.90;;;;;;5193754;28;20759;-49
2023/09/11 05:48:00;;;;;;;20.03;15.00;;;19.70;99.90;;;;;;5199734;28;20444;-49
2023/09/11 05:50:31;;;;;;;31.57;16.90;;;19.80;99.90;;;;;;5197454;28;20258;-48
2023/09/11 05:53:01;;;;;;;25.10;14.00;;;20.00;99.90;;;;;;5200266;28;20190;-49
2023/09/11 05:55:35;;;;;;;20.20;13.20;;;20.20;99.90;;;;;;5196686;28;20195;-49
2023/09/11 05:58:06;;;;;;;15.10;11.63;;;20.70;99.90;;;;;;5193506;28;20282;-50
2023/09/11 06:00:37;;;;;;;17.23;11.80;;;22.00;99.90;;;;;;5197601;28;20454;-50
2023/09/11 06:03:08;;;;;;;14.80;11.60;;;24.30;99.90;;;;;;5193803;28;20220;-50
2023/09/11 06:05:40;;;;;;;20.13;12.13;;;26.90;99.90;;;;;;5206129;28;20544;-50
2023/09/11 06:08:11;;;;;;;15.03;10.80;;;29.10;95.50;;;;;;5202205;28;20241;-49
2023/09/11 06:10:42;;;;;;;20.13;12.50;;;31.00;83.00;;;;;;5203409;28;20450;-49
2023/09/11 06:13:12;;;;;;;26.60;13.53;;;32.50;68.70;;;;;;5198285;28;20485;-50
2023/09/11 06:15:43;;;;;;;17.90;11.97;;;33.70;59.90;;;;;;5200518;28;20180;-51
2023/09/11 06:18:14;;;;;;;18.80;11.60;;;34.50;55.40;;;;;;5201164;28;20655;-50
2023/09/11 06:20:44;;;;;;;19.13;11.30;;;35.30;51.90;;;;;;5196152;28;20701;-50
2023/09/11 06:23:15;;;;;;;18.03;12.40;;;35.90;49.30;;;;;;5203260;28;20183;-52
2023/09/11 06:25:46;;;;;;;13.80;10.40;;;36.40;46.80;;;;;;5200818;28;20241;-51
2023/09/11 06:28:17;;;;;;;22.63;13.07;;;36.80;45.20;;;;;;5194132;28;20277;-50
2023/09/11 06:30:51;;;;;;;14.57;10.60;;;36.90;43.90;;;;;;5196675;28;20574;-52
2023/09/11 06:33:21;;;;;;;16.60;11.30;;;37.40;43.00;;;;;;5192088;28;20200;-50
2023/09/11 06:35:52;;;;;;;14.50;10.80;;;38.00;40.90;;;;;;5192167;28;20689;-50
2023/09/11 06:38:23;;;;;;;13.25;10.38;;;38.40;39.40;;;;;;5197025;28;20655;-52
2023/09/11 06:40:54;;;;;;;11.45;10.00;;;38.50;39.70;;;;;;5196216;28;20218;-50
2023/09/11 06:43:31;;;;;;;15.13;9.65;;;38.60;38.80;;;;;;5198468;28;20203;-51
2023/09/11 06:46:05;;;;;;;19.65;8.68;;;39.20;37.70;;;;;;5191597;28;20190;-49
2023/09/11 06:48:36;;;;;;;12.77;9.10;;;39.40;36.90;;;;;;5199458;28;20229;-51
2023/09/11 06:51:06;;;;;;;11.57;9.07;;;39.70;36.20;;;;;;5193548;28;20203;-50
2023/09/11 06:53:37;;;;;;;18.02;11.90;;;39.80;35.50;;;;;;5192863;28;20525;-50
2023/09/11 06:56:08;;;;;;;13.73;9.38;;;40.00;35.00;;;;;;5196499;28;20207;-50
2023/09/11 06:58:39;;;;;;;11.77;9.63;;;40.00;34.70;;;;;;5200589;28;20203;-54
2023/09/11 07:01:10;;;;;;;8.27;7.15;;;40.40;34.00;;;;;;5189984;28;20199;-51
2023/09/11 07:03:41;;;;;;;11.50;9.93;;;40.70;34.20;;;;;;5198053;28;20712;-50
2023/09/11 07:06:12;;;;;;;10.55;7.68;;;41.10;32.70;;;;;;5192614;28;20550;-52
2023/09/11 07:08:43;;;;;;;13.40;10.70;;;41.60;32.10;;;;;;5192945;28;20234;-50
2023/09/11 07:11:16;;;;;;;14.63;9.50;;;41.40;32.00;;;;;;5181473;28;20207;-51
2023/09/11 07:13:48;;;;;;;11.75;8.63;;;41.40;32.30;;;;;;5197291;28;20184;-51
2023/09/11 07:16:19;;;;;;;14.32;8.40;;;41.50;32.20;;;;;;5194237;28;20332;-50
2023/09/11 07:18:49;;;;;;;10.85;8.57;;;41.40;32.10;;;;;;5190153;28;20215;-50
2023/09/11 07:21:20;;;;;;;14.55;8.68;;;41.40;32.10;;;;;;5198812;28;20200;-51
2023/09/11 07:23:51;;;;;;;17.85;10.00;;;41.30;32.00;;;;;;5190056;28;20192;-51
2023/09/11 07:26:22;;;;;;;13.02;7.78;;;41.40;32.00;;;;;;5195652;28;20194;-50
2023/09/11 07:28:57;;;;;;;7.97;7.18;;;41.80;31.60;;;;;;5191099;28;20621;-51
2023/09/11 07:31:29;;;;;;;10.27;7.25;;;41.90;30.50;;;;;;5193855;28;20225;-51
2023/09/11 07:34:00;;;;;;;9.13;6.90;;;41.90;29.80;;;;;;5187732;28;20187;-49
2023/09/11 07:36:30;;;;;;;15.90;6.88;;;41.00;30.60;;;;;;5190795;28;20690;-51
2023/09/11 07:39:01;;;;;;;7.25;6.55;;;40.80;31.60;;;;;;5196611;28;20218;-50
2023/09/11 07:41:32;;;;;;;10.75;7.00;;;41.20;30.30;;;;;;5190624;28;20210;-49
2023/09/11 07:44:03;;;;;;;8.10;6.78;;;41.40;29.90;;;;;;5192408;28;20195;-51
2023/09/11 07:46:34;;;;;;;13.20;6.35;;;41.60;30.00;;;;;;5191339;28;20275;-50
2023/09/11 07:49:05;;;;;;;9.25;6.15;;;42.00;29.60;;;;;;5186174;28;20187;-50
2023/09/11 07:51:36;;;;;;;11.80;6.07;;;42.30;29.10;;;;;;5184975;28;20663;-50
2023/09/11 07:54:07;;;;;;;6.78;6.20;;;42.50;29.10;;;;;;5182817;28;20188;-50
2023/09/11 07:56:38;;;;;;;13.27;6.97;;;42.60;28.90;;;;;;5184795;28;20741;-51
2023/09/11 07:59:08;;;;;;;7.18;5.40;;;42.50;28.50;;;;;;5192138;28;20183;-50
2023/09/11 08:01:48;;;;;;;8.80;5.97;;;41.90;28.70;;;;;;5189562;28;20203;-51
2023/09/11 08:04:19;;;;;;;9.98;6.18;;;41.80;29.10;;;;;;5196518;28;20187;-50
2023/09/11 08:06:49;;;;;;;13.95;7.20;;;41.30;29.60;;;;;;5195245;28;20634;-50
2023/09/11 08:09:20;;;;;;;11.23;6.43;;;40.60;30.10;;;;;;5191039;28;20261;-50
2023/09/11 08:11:51;;;;;;;7.05;5.00;;;40.00;31.20;;;;;;5197324;28;20290;-50
2023/09/11 08:14:22;;;;;;;5.90;5.40;;;39.10;32.20;;;;;;5189617;28;20564;-50
2023/09/11 08:16:53;;;;;;;12.43;5.65;;;38.20;33.20;;;;;;5194833;28;20206;-50
2023/09/11 08:19:23;;;;;;;5.72;5.15;;;37.30;34.50;;;;;;5196441;28;20298;-49
2023/09/11 08:21:54;;;;;;;6.70;5.10;;;36.30;34.60;;;;;;5194105;28;20203;-50
2023/09/11 08:24:25;;;;;;;11.68;6.05;;;35.20;36.50;;;;;;5189794;28;20408;-49
2023/09/11 08:26:56;;;;;;;5.22;4.70;;;34.40;37.40;;;;;;5191909;28;20211;-49
2023/09/11 08:29:26;;;;;;;6.22;5.47;;;33.60;38.80;;;;;;5191903;28;20184;-50
2023/09/11 08:31:57;;;;;;;4.20;3.90;;;32.90;40.80;;;;;;5197334;28;20546;-50
2023/09/11 08:34:28;;;;;;;5.40;4.80;;;32.30;40.40;;;;;;5191798;28;20207;-50
2023/09/11 08:36:58;;;;;;;6.47;5.97;;;31.70;41.40;;;;;;5193894;28;20586;-50
2023/09/11 08:39:29;;;;;;;8.77;6.00;;;31.10;42.10;;;;;;5193409;28;20199;-50
2023/09/11 08:42:01;;;;;;;5.93;5.07;;;30.70;43.00;;;;;;5194878;28;20196;-50
2023/09/11 08:44:32;;;;;;;5.60;5.10;;;30.30;43.60;;;;;;5171398;28;20664;-49
2023/09/11 08:47:05;;;;;;;6.40;4.33;;;30.20;43.90;;;;;;5192663;28;20194;-51
2023/09/11 08:49:42;;;;;;;6.47;5.37;;;29.90;44.40;;;;;;5197554;28;20214;-50
2023/09/11 08:52:15;;;;;;;5.17;4.70;;;29.80;44.50;;;;;;5196422;28;20457;-50
2023/09/11 08:54:49;;;;;;;5.43;4.93;;;29.60;45.20;;;;;;5196973;28;20442;-50
2023/09/11 08:57:24;;;;;;;6.37;4.60;;;29.60;45.30;;;;;;5195207;28;20534;-49
2023/09/11 09:00:04;;;;;;;5.80;5.07;;;29.60;45.20;;;;;;5197375;28;20534;-50
2023/09/11 09:02:35;;;;;;;4.80;4.40;;;29.60;44.10;;;;;;5195608;28;21058;-49
2023/09/11 09:05:07;;;;;;;4.70;4.30;;;29.50;44.60;;;;;;5200261;28;20553;-50
2023/09/11 09:07:39;;;;;;;6.07;4.40;;;29.40;45.30;;;;;;5197280;28;20437;-50
2023/09/11 09:10:11;;;;;;;4.70;4.20;;;29.30;45.70;;;;;;5197330;28;20516;-50
2023/09/11 09:12:44;;;;;;;5.97;4.97;;;29.30;45.60;;;;;;5192973;28;20523;-49
2023/09/11 09:15:14;;;;;;;8.97;5.37;;;29.40;45.70;;;;;;5190768;28;20504;-49
2023/09/11 09:18:06;;;;;;;4.47;4.10;;;29.40;45.50;;;;;;5194062;28;20481;-50
2023/09/11 09:20:38;;;;;;;13.73;5.07;;;29.40;45.00;;;;;;5195939;28;20215;-50
2023/09/11 09:23:12;;;;;;;6.17;3.60;;;29.20;45.00;;;;;;5197699;28;20976;-49
2023/09/11 09:25:43;;;;;;;4.93;4.53;;;29.10;46.00;;;;;;5194559;28;20438;-50
2023/09/11 09:28:30;;;;;;;6.83;5.10;;;29.00;45.90;;;;;;5195611;28;20434;-49
2023/09/11 09:31:01;;;;;;;12.10;4.47;;;29.10;45.70;;;;;;5198076;28;20195;-49
2023/09/11 09:33:32;;;;;;;4.53;4.13;;;29.10;45.50;;;;;;5199218;28;20505;-48
2023/09/11 09:36:03;;;;;;;5.30;4.80;;;29.20;45.90;;;;;;5192605;28;20196;-49
2023/09/11 09:38:34;;;;;;;5.73;5.20;;;29.30;46.00;;;;;;5196258;28;20437;-51
2023/09/11 09:41:12;;;;;;;11.23;4.97;;;29.30;45.30;;;;;;5192298;28;20203;-50
2023/09/11 09:43:52;;;;;;;5.07;4.17;;;29.20;44.80;;;;;;5201276;28;20453;-49
2023/09/11 09:46:23;;;;;;;6.30;5.67;;;29.00;45.20;;;;;;5200814;28;20462;-51
2023/09/11 09:48:55;;;;;;;5.07;4.77;;;29.10;46.20;;;;;;5194691;28;20446;-50
2023/09/11 09:51:28;;;;;;;7.70;5.10;;;29.10;46.40;;;;;;5197443;28;20451;-50
2023/09/11 09:53:59;;;;;;;11.50;5.07;;;29.10;45.90;;;;;;5193772;28;20446;-50
2023/09/11 09:56:30;;;;;;;6.20;4.33;;;29.10;45.50;;;;;;5196620;28;20467;-50
2023/09/11 09:59:08;;;;;;;5.10;4.67;;;29.10;45.80;;;;;;5198443;28;20533;-49
2023/09/11 10:01:46;;;;;;;4.60;4.30;;;29.10;45.90;;;;;;5190414;28;20869;-49
2023/09/11 10:04:17;;;;;;;8.17;4.17;;;29.10;45.90;;;;;;5193873;28;20456;-50
2023/09/11 10:06:57;;;;;;;4.67;4.33;;;29.10;46.20;;;;;;5196015;28;20434;-50
2023/09/11 10:09:28;;;;;;;4.90;4.50;;;29.20;46.40;;;;;;5189555;28;20323;-50
2023/09/11 10:12:03;;;;;;;5.10;4.47;;;29.20;46.30;;;;;;5197140;28;20465;-50
2023/09/11 10:14:34;;;;;;;4.67;3.73;;;29.20;46.20;;;;;;5196956;28;20195;-50
2023/09/11 10:17:05;;;;;;;5.87;4.30;;;29.30;46.40;;;;;;5197550;28;20486;-49
2023/09/11 10:19:37;;;;;;;5.83;5.30;;;29.30;46.20;;;;;;5201553;28;20180;-49
2023/09/11 10:22:08;;;;;;;5.83;5.00;;;29.30;46.00;;;;;;5191430;28;20837;-50
2023/09/11 10:24:48;;;;;;;4.30;4.00;;;29.20;46.60;;;;;;5197147;28;20508;-49
2023/09/11 10:27:20;;;;;;;6.90;4.50;;;29.10;46.70;;;;;;5199093;28;20195;-50
2023/09/11 10:30:12;;;;;;;5.80;5.20;;;29.10;46.80;;;;;;5194374;28;21580;-50
2023/09/11 10:32:58;;;;;;;6.27;4.40;;;29.10;47.40;;;;;;5205163;28;20473;-49
2023/09/11 10:35:33;;;;;;;14.57;4.00;;;29.10;47.20;;;;;;5189959;28;20499;-49
2023/09/11 10:38:04;;;;;;;7.90;4.50;;;29.20;47.20;;;;;;5181744;28;20464;-50
2023/09/11 10:40:36;;;;;;;10.90;5.27;;;29.20;47.40;;;;;;5179036;28;20545;-50
2023/09/11 10:43:07;;;;;;;9.00;5.10;;;29.20;46.60;;;;;;5188999;28;20480;-49
2023/09/11 10:45:38;;;;;;;4.60;4.20;;;29.00;46.80;;;;;;5200053;28;20442;-51
2023/09/11 10:48:28;;;;;;;4.87;4.57;;;28.90;47.20;;;;;;5190599;28;20446;-50
2023/09/11 10:51:00;;;;;;;6.20;4.87;;;29.00;47.50;;;;;;5198816;28;20195;-49
2023/09/11 10:53:31;;;;;;;7.80;5.57;;;29.10;47.70;;;;;;5190968;28;20446;-50
2023/09/11 10:56:02;;;;;;;14.90;6.30;;;29.20;47.70;;;;;;5198786;28;20443;-49
2023/09/11 10:58:34;;;;;;;5.50;4.60;;;29.20;46.70;;;;;;5197669;28;20434;-50
2023/09/11 11:01:05;;;;;;;9.33;5.60;;;29.30;47.40;;;;;;5193215;28;20449;-50
2023/09/11 11:03:36;;;;;;;12.30;8.40;;;29.40;46.50;;;;;;5189712;28;20488;-49
2023/09/11 11:06:12;;;;;;;8.30;5.53;;;29.40;46.40;;;;;;5187511;28;20274;-49
2023/09/11 11:08:45;;;;;;;16.43;5.73;;;29.30;46.10;;;;;;5181900;28;20925;-49
2023/09/11 11:11:29;;;;;;;6.17;5.27;;;29.40;46.90;;;;;;5185537;28;20513;-49
2023/09/11 11:14:15;;;;;;;5.67;4.90;;;29.30;46.10;;;;;;5199509;28;20417;-49
2023/09/11 11:16:59;;;;;;;11.10;4.40;;;29.20;46.20;;;;;;5199235;28;20980;-49
2023/09/11 11:19:35;;;;;;;6.10;5.43;;;29.30;46.40;;;;;;5196400;28;20426;-49
2023/09/11 11:22:07;;;;;;;12.50;6.50;;;29.50;45.90;;;;;;5188958;28;20814;-49
2023/09/11 11:24:54;;;;;;;8.10;5.60;;;29.40;45.80;;;;;;5195547;28;20974;-50
2023/09/11 11:27:26;;;;;;;6.30;4.90;;;29.40;45.80;;;;;;5193391;28;20433;-49
2023/09/11 11:29:57;;;;;;;5.63;5.13;;;29.20;45.50;;;;;;5202096;28;20430;-50
2023/09/11 11:32:30;;;;;;;7.43;5.20;;;29.00;45.70;;;;;;5193093;28;20593;-49
2023/09/11 11:35:04;;;;;;;4.53;4.13;;;29.00;46.10;;;;;;5194218;28;20187;-49
2023/09/11 11:37:37;;;;;;;5.73;5.17;;;29.00;46.30;;;;;;5190777;28;20465;-50
2023/09/11 11:40:08;;;;;;;8.07;5.17;;;29.10;46.10;;;;;;5191096;28;20450;-49
2023/09/11 11:42:40;;;;;;;5.13;4.50;;;29.00;46.00;;;;;;5188427;28;20967;-49
2023/09/11 11:45:11;;;;;;;6.20;4.83;;;28.90;46.40;;;;;;5196165;28;20566;-49
2023/09/11 11:47:43;;;;;;;5.27;4.40;;;29.00;46.60;;;;;;5195915;28;20547;-49
2023/09/11 11:50:13;;;;;;;13.13;4.70;;;29.10;46.70;;;;;;5193572;28;20191;-49
2023/09/11 11:52:46;;;;;;;5.20;4.70;;;29.30;47.20;;;;;;5193109;28;20448;-49
2023/09/11 11:55:21;;;;;;;5.57;5.07;;;29.40;46.80;;;;;;5196633;28;20579;-49
2023/09/11 11:57:52;;;;;;;7.63;5.00;;;29.50;45.70;;;;;;5197759;28;20468;-49
2023/09/11 12:00:23;;;;;;;6.83;4.27;;;29.50;45.80;;;;;;5196764;28;20446;-49
2023/09/11 12:03:03;;;;;;;5.93;5.00;;;29.60;46.00;;;;;;5193045;28;20190;-49
2023/09/11 12:05:36;;;;;;;4.70;4.43;;;29.50;45.50;;;;;;5187695;28;20496;-49
2023/09/11 12:08:11;;;;;;;9.43;4.80;;;29.30;44.80;;;;;;5195047;28;20453;-50
2023/09/11 12:10:45;;;;;;;5.13;4.63;;;29.20;45.20;;;;;;5177199;28;20479;-49
2023/09/11 12:13:17;;;;;;;9.17;4.60;;;29.20;45.80;;;;;;5198581;28;20453;-49
2023/09/11 12:16:01;;;;;;;6.27;5.30;;;29.20;46.10;;;;;;5192300;28;20437;-50
2023/09/11 12:18:36;;;;;;;5.10;4.60;;;29.40;45.80;;;;;;5192947;28;21023;-50
2023/09/11 12:21:07;;;;;;;5.40;4.73;;;29.40;45.30;;;;;;5191772;28;20618;-50
2023/09/11 12:23:38;;;;;;;11.93;5.30;;;29.40;45.50;;;;;;5192873;28;20431;-48
2023/09/11 12:26:09;;;;;;;11.57;5.70;;;29.40;45.40;;;;;;5195709;28;20791;-49
2023/09/11 12:28:40;;;;;;;15.13;5.70;;;29.40;45.50;;;;;;5196940;28;20225;-50
2023/09/11 12:31:11;;;;;;;4.73;4.30;;;29.50;45.40;;;;;;5196512;28;20195;-49
2023/09/11 12:33:42;;;;;;;28.27;13.03;;;29.50;45.00;;;;;;5195550;28;20434;-49
2023/09/11 12:36:12;;;;;;;7.60;5.27;;;29.50;44.50;;;;;;5195626;28;20183;-50
2023/09/11 12:38:45;;;;;;;6.40;4.40;;;29.50;43.90;;;;;;5191776;28;20183;-51
2023/09/11 12:41:20;;;;;;;8.50;4.83;;;29.60;43.20;;;;;;5196698;28;20211;-50
2023/09/11 12:43:51;;;;;;;5.63;4.57;;;29.60;42.90;;;;;;5183614;28;20816;-51
2023/09/11 12:46:22;;;;;;;4.30;3.90;;;29.50;42.30;;;;;;5201682;28;20464;-49
2023/09/11 12:48:53;;;;;;;6.27;4.63;;;29.50;42.10;;;;;;5181241;28;20202;-50
2023/09/11 12:51:24;;;;;;;16.33;5.00;;;29.50;42.40;;;;;;5194295;28;20729;-49
2023/09/11 12:53:55;;;;;;;10.63;4.87;;;29.40;42.30;;;;;;5200112;28;20430;-49
2023/09/11 12:56:27;;;;;;;6.27;4.30;;;29.40;42.40;;;;;;5197987;28;20200;-50
2023/09/11 12:58:59;;;;;;;5.07;3.70;;;29.40;42.40;;;;;;5198011;28;20436;-51
2023/09/11 13:01:32;;;;;;;7.20;4.33;;;29.50;42.80;;;;;;5191178;28;20508;-50